Time;durP1;ratioP1;P1;durP2;ratioP2;P2;SDS_P1;SDS_P2;PMS_P1;PMS_P2;Temp;Humidity;BMP_temperature;BMP_pressure;BME280_temperature;BME280_humidity;BME280_pressure;Samples;Min_cycle;Max_cycle;Signal;HPM_P1;HPM_P2
2023/01/08 00:01:59;;;;;;;28.20;19.23;;;103.30;2227.20;;;;;;5089312;28;20040;-60
2023/01/08 00:04:25;;;;;;;36.20;21.23;;;103.30;2227.20;;;;;;5089077;28;20038;-60
2023/01/08 00:06:51;;;;;;;46.45;28.23;;;128.00;2252.80;;;;;;5089940;28;20036;-60
2023/01/08 00:09:17;;;;;;;44.78;28.40;;;128.20;2252.80;;;;;;5093954;28;20028;-62
2023/01/08 00:11:43;;;;;;;32.35;22.23;;;128.30;2252.80;;;;;;5093813;28;20055;-61
2023/01/08 00:14:09;;;;;;;57.17;34.30;;;128.40;2252.80;;;;;;5093848;28;20032;-61
2023/01/08 00:16:35;;;;;;;62.13;38.80;;;128.30;2252.80;;;;;;5093860;28;20606;-62
2023/01/08 00:19:01;;;;;;;44.38;27.67;;;128.40;2252.80;;;;;;5093596;28;20122;-61
2023/01/08 00:21:27;;;;;;;54.72;32.58;;;128.30;2252.80;;;;;;5093916;28;20040;-62
2023/01/08 00:23:53;;;;;;;45.50;31.40;;;128.30;2252.80;;;;;;5093834;28;20099;-60
2023/01/08 00:26:19;;;;;;;42.65;26.45;;;128.20;2252.80;;;;;;5093766;28;20591;-60
2023/01/08 00:28:44;;;;;;;87.50;51.63;;;128.00;2252.80;;;;;;5093496;28;20031;-61
2023/01/08 00:31:12;;;;;;;83.20;49.10;;;128.20;2252.80;;;;;;5093905;28;20098;-61
2023/01/08 00:33:38;;;;;;;87.15;52.33;;;128.20;2252.80;;;;;;5093833;28;20075;-62
2023/01/08 00:36:10;;;;;;;58.75;37.58;;;128.30;2252.80;;;;;;5093409;28;20115;-61
2023/01/08 00:38:35;;;;;;;41.97;28.30;;;128.40;2252.80;;;;;;5094335;28;20035;-62
2023/01/08 00:41:01;;;;;;;39.67;23.95;;;128.30;2252.80;;;;;;5096759;28;20036;-61
2023/01/08 00:43:27;;;;;;;87.18;48.75;;;128.20;2252.80;;;;;;5096547;28;20027;-60
2023/01/08 00:45:53;;;;;;;183.90;86.38;;;128.20;2252.80;;;;;;5095923;28;20056;-62
2023/01/08 00:48:21;;;;;;;81.65;42.78;;;128.30;2252.80;;;;;;5096751;28;20024;-60
2023/01/08 00:50:50;;;;;;;59.30;34.17;;;128.40;2252.80;;;;;;5094714;28;20111;-61
2023/01/08 00:53:17;;;;;;;60.05;37.85;;;128.40;2252.80;;;;;;5093205;28;20028;-60
2023/01/08 00:55:43;;;;;;;59.30;37.55;;;128.30;2252.80;;;;;;5093275;28;20381;-60
2023/01/08 00:58:09;;;;;;;66.55;37.15;;;128.40;2252.80;;;;;;5093262;28;20388;-61
2023/01/08 01:00:35;;;;;;;94.35;54.30;;;128.40;2252.80;;;;;;5092904;28;20040;-62
2023/01/08 01:03:01;;;;;;;65.82;38.75;;;128.40;2252.80;;;;;;5093196;28;20020;-61
2023/01/08 01:05:26;;;;;;;55.47;32.60;;;128.40;2252.80;;;;;;5093001;28;20053;-60
2023/01/08 01:07:52;;;;;;;75.35;43.10;;;128.40;2252.80;;;;;;5092893;28;20025;-61
2023/01/08 01:10:18;;;;;;;76.80;43.78;;;128.30;2252.80;;;;;;5092943;28;20505;-60
2023/01/08 01:12:44;;;;;;;46.85;27.05;;;128.40;2252.80;;;;;;5092651;28;20500;-61
2023/01/08 01:15:13;;;;;;;39.30;25.05;;;128.40;2252.80;;;;;;5092875;28;20474;-62
2023/01/08 01:17:40;;;;;;;36.33;20.92;;;128.50;2252.80;;;;;;5092422;28;20386;-61
2023/01/08 01:20:08;;;;;;;27.42;18.40;;;128.50;2252.80;;;;;;5092838;28;20043;-61
2023/01/08 01:22:35;;;;;;;22.52;17.15;;;128.40;2252.80;;;;;;5092805;28;20020;-61
2023/01/08 01:25:01;;;;;;;35.47;21.63;;;128.40;2252.80;;;;;;5092604;28;20052;-60
2023/01/08 01:27:27;;;;;;;27.10;18.70;;;128.30;2252.80;;;;;;5092540;28;20036;-61
2023/01/08 01:29:53;;;;;;;34.10;21.13;;;128.10;2252.80;;;;;;5092650;28;20039;-59
2023/01/08 01:32:19;;;;;;;50.50;30.50;;;128.20;2252.80;;;;;;5092611;28;20028;-61
2023/01/08 01:34:45;;;;;;;32.33;23.77;;;128.00;2252.80;;;;;;5092618;28;20078;-60
2023/01/08 01:37:14;;;;;;;22.83;17.13;;;128.00;2252.80;;;;;;5092352;28;20056;-60
2023/01/08 01:39:45;;;;;;;27.38;19.73;;;128.00;2252.80;;;;;;5092437;28;20063;-61
2023/01/08 01:45:26;;;;;;;38.10;26.23;;;128.10;2252.80;;;;;;5092141;28;20201;-60
2023/01/08 01:47:54;;;;;;;40.55;25.70;;;128.00;2252.80;;;;;;5091924;28;20043;-62
2023/01/08 01:50:36;;;;;;;53.13;32.22;;;128.00;2252.80;;;;;;5092105;28;20494;-60
2023/01/08 01:53:29;;;;;;;53.80;32.63;;;103.30;2227.20;;;;;;5091931;28;20493;-61
2023/01/08 01:55:56;;;;;;;45.65;28.02;;;103.10;2227.20;;;;;;5092255;28;20036;-60
2023/01/08 01:58:28;;;;;;;32.20;18.85;;;103.10;2227.20;;;;;;5091790;28;20027;-62
2023/01/08 02:00:56;;;;;;;32.53;19.98;;;103.00;2227.20;;;;;;5091478;28;20047;-61
2023/01/08 02:03:29;;;;;;;35.40;21.02;;;103.00;2227.20;;;;;;5091691;28;20374;-62
2023/01/08 02:06:06;;;;;;;24.90;16.08;;;103.00;2227.20;;;;;;5091942;28;20044;-60
2023/01/08 02:08:39;;;;;;;25.40;15.65;;;;;;;;;;5091651;28;20072;-61
2023/01/08 02:11:38;;;;;;;48.75;38.78;;;;;;;;;;5091588;28;20047;-59
2023/01/08 02:14:37;;;;;;;30.00;20.65;;;103.10;2227.20;;;;;;5009436;28;20491;-60
2023/01/08 02:17:08;;;;;;;19.50;13.75;;;103.00;2227.20;;;;;;5009563;28;20125;-60
2023/01/08 02:19:37;;;;;;;28.23;16.48;;;103.10;2227.20;;;;;;5009492;28;20479;-60
2023/01/08 02:22:14;;;;;;;23.75;15.68;;;103.00;2227.20;;;;;;5009367;28;20486;-63
2023/01/08 02:24:51;;;;;;;24.00;17.60;;;103.00;2227.20;;;;;;5009563;28;20569;-62
2023/01/08 02:27:19;;;;;;;35.85;22.00;;;103.00;2227.20;;;;;;5009597;28;20069;-60
2023/01/08 02:29:46;;;;;;;41.83;22.17;;;103.10;2227.20;;;;;;5008423;28;20483;-61
2023/01/08 02:32:13;;;;;;;32.42;18.65;;;103.00;2227.20;;;;;;5009354;28;20140;-62
2023/01/08 02:34:38;;;;;;;42.03;25.13;;;102.90;2227.20;;;;;;5009381;28;20088;-62
2023/01/08 02:37:04;;;;;;;34.42;25.95;;;102.90;2227.20;;;;;;5009373;28;20037;-60
2023/01/08 02:39:44;;;;;;;37.10;24.42;;;103.00;2227.20;;;;;;5011412;28;20038;-60
2023/01/08 02:42:24;;;;;;;31.98;19.45;;;103.00;2227.20;;;;;;5009207;28;20096;-59
2023/01/08 02:44:53;;;;;;;44.38;25.00;;;103.10;2227.20;;;;;;5009204;28;20030;-60
2023/01/08 02:47:26;;;;;;;43.80;29.05;;;103.10;2227.20;;;;;;5009315;28;20096;-60
2023/01/08 02:50:06;;;;;;;32.60;21.42;;;103.10;2227.20;;;;;;5058220;28;20040;-61
2023/01/08 02:52:35;;;;;;;34.88;24.00;;;103.20;2227.20;;;;;;5090927;28;20042;-61
2023/01/08 02:55:03;;;;;;;39.00;25.80;;;103.10;2227.20;;;;;;5091003;28;20016;-60
2023/01/08 02:57:31;;;;;;;55.85;31.60;;;103.10;2227.20;;;;;;5090961;28;20039;-61
2023/01/08 02:59:57;;;;;;;48.63;32.28;;;103.10;2227.20;;;;;;5089213;28;20405;-61
2023/01/08 03:02:28;;;;;;;32.75;21.55;;;103.10;2227.20;;;;;;5090395;28;20111;-60
2023/01/08 03:04:58;;;;;;;37.78;24.40;;;103.10;2227.20;;;;;;5090689;28;20070;-61
2023/01/08 03:07:24;;;;;;;34.45;18.50;;;103.10;2227.20;;;;;;5090707;28;20236;-61
2023/01/08 03:09:51;;;;;;;34.72;25.33;;;103.10;2227.20;;;;;;5090822;28;20028;-61
2023/01/08 03:12:34;;;;;;;46.92;30.50;;;103.10;2227.20;;;;;;5089943;28;20373;-60
2023/01/08 03:15:07;;;;;;;45.30;28.52;;;102.70;2227.20;;;;;;5090858;28;20399;-60
2023/01/08 03:17:36;;;;;;;26.98;18.48;;;;;;;;;;5090624;28;20028;-60
2023/01/08 03:20:09;;;;;;;34.00;24.60;;;102.70;2227.20;;;;;;5090474;28;20020;-61
2023/01/08 03:22:38;;;;;;;38.20;24.13;;;102.70;2227.20;;;;;;5090270;28;20034;-59
2023/01/08 03:25:05;;;;;;;37.13;23.70;;;102.80;2227.20;;;;;;5090302;28;20040;-60
2023/01/08 03:27:34;;;;;;;38.75;24.52;;;102.80;2227.20;;;;;;5090421;28;20487;-62
2023/01/08 03:30:00;;;;;;;48.63;31.08;;;102.80;2227.20;;;;;;5090587;28;20059;-59
2023/01/08 03:32:29;;;;;;;45.28;29.27;;;102.80;2227.20;;;;;;5090776;28;20035;-60
2023/01/08 03:34:56;;;;;;;53.08;28.90;;;102.80;2227.20;;;;;;5090573;28;20067;-61
2023/01/08 03:37:27;;;;;;;44.72;29.23;;;102.90;2227.20;;;;;;5090258;28;20050;-60
2023/01/08 03:40:16;;;;;;;30.88;19.95;;;102.90;2227.20;;;;;;5090075;28;20036;-61
2023/01/08 03:42:42;;;;;;;69.75;39.80;;;102.90;2227.20;;;;;;5089878;28;20040;-61
2023/01/08 03:45:08;;;;;;;73.35;45.80;;;102.80;2227.20;;;;;;5090258;28;20028;-62
2023/01/08 03:47:36;;;;;;;51.75;32.05;;;102.80;2227.20;;;;;;5090124;28;20036;-61
2023/01/08 03:50:06;;;;;;;28.67;18.27;;;102.70;2227.20;;;;;;5090191;28;20028;-60
2023/01/08 03:52:32;;;;;;;28.60;17.90;;;102.70;2227.20;;;;;;5090077;28;20433;-62
2023/01/08 03:54:58;;;;;;;63.17;39.78;;;102.70;2227.20;;;;;;5090164;28;20576;-61
2023/01/08 03:57:24;;;;;;;56.15;35.30;;;102.70;2227.20;;;;;;5090312;28;20036;-61
2023/01/08 03:59:49;;;;;;;55.15;34.53;;;102.60;2227.20;;;;;;5090259;28;20428;-62
2023/01/08 04:02:15;;;;;;;30.38;22.85;;;102.60;2227.20;;;;;;5090133;28;20381;-61
2023/01/08 04:04:41;;;;;;;39.60;27.50;;;102.60;2227.20;;;;;;5089915;28;20077;-61
2023/01/08 04:07:09;;;;;;;41.05;25.77;;;102.60;2227.20;;;;;;5090414;28;20028;-62
2023/01/08 04:09:35;;;;;;;31.00;20.42;;;102.40;2227.20;;;;;;5089784;28;20496;-62
2023/01/08 04:12:00;;;;;;;38.67;20.77;;;102.40;2227.20;;;;;;5090454;28;20028;-61
2023/01/08 04:14:26;;;;;;;47.72;27.85;;;77.70;2227.20;;;;;;5090280;28;20052;-62
2023/01/08 04:16:52;;;;;;;45.85;26.40;;;102.50;2227.20;;;;;;5089755;28;20426;-60
2023/01/08 04:19:17;;;;;;;34.30;22.55;;;102.50;2227.20;;;;;;5090197;28;20031;-61
2023/01/08 04:21:43;;;;;;;29.40;18.90;;;102.50;2227.20;;;;;;5090181;28;20413;-60
2023/01/08 04:24:11;;;;;;;31.50;20.95;;;102.60;2227.20;;;;;;5090217;28;20043;-62
2023/01/08 04:26:37;;;;;;;31.77;22.20;;;;;;;;;;5090135;28;20493;-62
2023/01/08 04:29:03;;;;;;;32.58;21.15;;;;;;;;;;5089886;28;20465;-59
2023/01/08 04:31:29;;;;;;;24.23;17.80;;;;;;;;;;5090250;28;20099;-62
2023/01/08 04:33:55;;;;;;;23.27;15.38;;;;;;;;;;5090089;28;20385;-61
2023/01/08 04:36:21;;;;;;;28.52;17.58;;;;;;;;;;5089785;28;20082;-60
2023/01/08 04:38:47;;;;;;;31.55;20.45;;;;;;;;;;5089883;28;20024;-60
2023/01/08 04:41:13;;;;;;;26.70;18.27;;;;;;;;;;5089449;28;20043;-60
2023/01/08 04:43:39;;;;;;;28.90;19.33;;;;;;;;;;5089950;28;20024;-62
2023/01/08 04:46:09;;;;;;;40.05;22.25;;;;;;;;;;5089622;28;20048;-60
2023/01/08 04:48:35;;;;;;;26.02;17.70;;;;;;;;;;5089432;28;20024;-60
2023/01/08 04:51:02;;;;;;;27.08;15.27;;;;;;;;;;5090141;28;20028;-63
2023/01/08 04:53:28;;;;;;;32.00;19.42;;;;;;;;;;5091095;28;20369;-61
2023/01/08 04:55:54;;;;;;;28.23;17.38;;;;;;;;;;5093259;28;20105;-59
2023/01/08 04:58:20;;;;;;;29.35;18.88;;;;;;;;;;5093349;28;20028;-62
2023/01/08 05:00:46;;;;;;;28.85;16.67;;;;;;;;;;5092815;28;20157;-60
2023/01/08 05:03:13;;;;;;;28.23;17.80;;;;;;;;;;5092683;28;20035;-60
2023/01/08 05:05:39;;;;;;;34.38;18.92;;;;;;;;;;5093305;28;20024;-60
2023/01/08 05:08:05;;;;;;;34.80;22.33;;;102.80;2227.20;;;;;;5092735;28;20051;-60
2023/01/08 05:10:31;;;;;;;36.72;20.38;;;102.70;2227.20;;;;;;5092954;28;20478;-60
2023/01/08 05:13:00;;;;;;;34.92;20.23;;;102.70;2227.20;;;;;;5093170;28;20449;-60
2023/01/08 05:15:26;;;;;;;35.78;21.15;;;102.60;2227.20;;;;;;5092858;28;20033;-60
2023/01/08 05:18:04;;;;;;;27.83;17.55;;;102.60;2227.20;;;;;;5092818;28;20032;-60
2023/01/08 05:20:31;;;;;;;36.28;18.38;;;102.60;2227.20;;;;;;5092960;28;20106;-60
2023/01/08 05:22:57;;;;;;;46.30;25.58;;;102.70;2227.20;;;;;;5092829;28;20032;-60
2023/01/08 05:25:23;;;;;;;43.63;25.67;;;102.80;2227.20;;;;;;5092573;28;20016;-60
2023/01/08 05:27:49;;;;;;;30.13;19.13;;;103.20;2227.20;;;;;;5092641;28;20115;-59
2023/01/08 05:30:15;;;;;;;29.50;17.05;;;102.80;2227.20;;;;;;5092663;28;20020;-60
2023/01/08 05:32:41;;;;;;;25.45;15.77;;;102.70;2227.20;;;;;;5092509;28;20415;-60
2023/01/08 05:35:07;;;;;;;23.98;16.35;;;102.60;2227.20;;;;;;5092666;28;20425;-60
2023/01/08 05:37:34;;;;;;;24.60;15.55;;;102.60;2227.20;;;;;;5092713;28;20032;-60
2023/01/08 05:40:00;;;;;;;26.92;15.80;;;102.60;2227.20;;;;;;5092619;28;20028;-65
2023/01/08 05:42:25;;;;;;;28.13;16.90;;;102.50;2227.20;;;;;;5090675;28;20047;-64
2023/01/08 05:44:51;;;;;;;29.42;20.30;;;102.50;2227.20;;;;;;5092471;28;20031;-60
2023/01/08 05:47:17;;;;;;;31.17;18.63;;;102.50;2227.20;;;;;;5092150;28;20401;-62
2023/01/08 05:49:42;;;;;;;27.73;16.65;;;102.50;2227.20;;;;;;5092372;28;20105;-60
2023/01/08 05:52:08;;;;;;;25.33;17.10;;;102.40;2227.20;;;;;;5092114;28;20382;-60
2023/01/08 05:54:34;;;;;;;26.88;14.45;;;102.40;2227.20;;;;;;5092084;28;20021;-61
2023/01/08 05:56:59;;;;;;;22.75;14.80;;;102.50;2227.20;;;;;;5092284;28;20028;-61
2023/01/08 05:59:25;;;;;;;24.00;15.45;;;102.40;2227.20;;;;;;5091870;28;20020;-61
2023/01/08 06:01:51;;;;;;;21.60;15.70;;;102.40;2227.20;;;;;;5091577;28;20036;-60
2023/01/08 06:04:16;;;;;;;20.55;13.68;;;102.40;2227.20;;;;;;5092057;28;20028;-61
2023/01/08 06:06:42;;;;;;;23.48;15.02;;;102.40;2227.20;;;;;;5091604;28;20533;-60
2023/01/08 06:09:08;;;;;;;30.50;17.63;;;102.50;2227.20;;;;;;5094131;28;20032;-66
2023/01/08 06:11:34;;;;;;;50.25;28.50;;;102.50;2227.20;;;;;;5096372;28;20505;-65
2023/01/08 06:13:59;;;;;;;40.05;26.35;;;102.50;2227.20;;;;;;5097038;28;20036;-65
2023/01/08 06:16:25;;;;;;;38.70;23.38;;;102.50;2227.20;;;;;;5096319;28;20024;-63
2023/01/08 06:18:51;;;;;;;35.97;23.02;;;102.60;2227.20;;;;;;5096701;28;20028;-67
2023/01/08 06:21:16;;;;;;;42.35;27.00;;;102.70;2227.20;;;;;;5091913;28;20038;-62
2023/01/08 06:23:42;;;;;;;31.67;27.10;;;102.70;2227.20;;;;;;5091805;28;20035;-61
2023/01/08 06:26:08;;;;;;;36.22;27.20;;;102.80;2227.20;;;;;;5091689;28;20525;-61
2023/01/08 06:28:40;;;;;;;45.33;32.42;;;102.80;2227.20;;;;;;5091744;28;20104;-61
2023/01/08 06:31:05;;;;;;;39.13;23.85;;;102.80;2227.20;;;;;;5091827;28;20377;-60
2023/01/08 06:33:31;;;;;;;46.42;27.63;;;103.00;2227.20;;;;;;5091698;28;20016;-62
2023/01/08 06:36:03;;;;;;;45.10;29.60;;;102.80;2227.20;;;;;;5091544;28;20028;-62
2023/01/08 06:38:33;;;;;;;41.85;24.30;;;102.90;2227.20;;;;;;5091121;28;20033;-60
2023/01/08 06:41:03;;;;;;;29.23;17.40;;;102.90;2227.20;;;;;;5091501;28;20039;-59
2023/01/08 06:43:29;;;;;;;38.97;28.73;;;102.90;2227.20;;;;;;5091157;28;20115;-60
2023/01/08 06:45:57;;;;;;;38.08;24.83;;;102.90;2227.20;;;;;;5090976;28;20079;-61
2023/01/08 06:48:24;;;;;;;53.65;31.02;;;102.90;2227.20;;;;;;5090850;28;20374;-60
2023/01/08 06:50:50;;;;;;;60.05;41.70;;;102.90;2227.20;;;;;;5091169;28;20024;-60
2023/01/08 06:53:16;;;;;;;74.82;47.10;;;102.90;2227.20;;;;;;5091356;28;20028;-59
2023/01/08 06:55:41;;;;;;;41.88;27.63;;;102.90;2227.20;;;;;;5090921;28;20024;-60
2023/01/08 06:58:11;;;;;;;103.93;74.03;;;103.00;2227.20;;;;;;5091146;28;20365;-60
2023/01/08 07:00:37;;;;;;;35.63;26.20;;;103.00;2227.20;;;;;;5090811;28;20017;-61
2023/01/08 07:03:03;;;;;;;106.88;77.00;;;103.00;2227.20;;;;;;5090886;28;20031;-60
2023/01/08 07:05:29;;;;;;;31.55;24.10;;;103.10;2227.20;;;;;;5090987;28;20099;-61
2023/01/08 07:07:55;;;;;;;28.20;19.65;;;103.10;2227.20;;;;;;5090745;28;20107;-60
2023/01/08 07:10:21;;;;;;;22.52;15.68;;;103.20;2227.20;;;;;;5090325;28;20494;-60
2023/01/08 07:12:47;;;;;;;24.15;17.00;;;103.20;2227.20;;;;;;5091021;28;20024;-60
2023/01/08 07:15:14;;;;;;;28.83;18.48;;;103.20;2227.20;;;;;;5090039;28;20032;-60
2023/01/08 07:17:39;;;;;;;24.67;16.33;;;103.30;2227.20;;;;;;5090078;28;20054;-60
2023/01/08 07:20:06;;;;;;;29.75;19.55;;;128.00;2252.80;;;;;;5090179;28;20035;-61
2023/01/08 07:22:32;;;;;;;38.70;31.10;;;128.00;2252.80;;;;;;5090557;28;20036;-61
2023/01/08 07:24:57;;;;;;;118.93;72.97;;;128.00;2252.80;;;;;;5090560;28;20468;-59
2023/01/08 07:27:23;;;;;;;340.75;222.00;;;128.00;2252.80;;;;;;5090366;28;20534;-60
2023/01/08 07:29:48;;;;;;;247.05;158.48;;;128.10;2252.80;;;;;;5090273;28;20063;-61
2023/01/08 07:32:14;;;;;;;60.65;42.05;;;128.10;2252.80;;;;;;5090081;28;20043;-61
2023/01/08 07:34:40;;;;;;;26.85;19.00;;;128.00;2252.80;;;;;;5090407;28;20028;-59
2023/01/08 07:37:05;;;;;;;24.88;18.08;;;128.10;2252.80;;;;;;5090333;28;20032;-61
2023/01/08 07:39:31;;;;;;;25.80;18.50;;;128.20;2252.80;;;;;;5089923;28;20065;-60
2023/01/08 07:41:57;;;;;;;26.63;17.48;;;128.30;2252.80;;;;;;5090188;28;20040;-60
2023/01/08 07:44:22;;;;;;;29.92;21.33;;;128.40;2252.80;;;;;;5089940;28;20020;-60
2023/01/08 07:46:48;;;;;;;68.32;49.20;;;128.50;2252.80;;;;;;5090027;28;20513;-62
2023/01/08 07:49:14;;;;;;;58.50;40.58;;;128.50;2252.80;;;;;;5089943;28;20055;-60
2023/01/08 07:51:40;;;;;;;52.33;36.10;;;128.70;2252.80;;;;;;5090397;28;20111;-60
2023/01/08 07:54:05;;;;;;;22.02;15.82;;;128.60;2252.80;;;;;;5090157;28;20462;-61
2023/01/08 07:56:31;;;;;;;23.58;15.20;;;128.50;2252.80;;;;;;5090446;28;20047;-61
2023/01/08 07:58:57;;;;;;;21.17;13.52;;;128.60;2252.80;;;;;;5090086;28;20021;-58
2023/01/08 08:01:24;;;;;;;16.73;11.45;;;128.60;2252.80;;;;;;5089878;28;20115;-60
2023/01/08 08:03:50;;;;;;;20.67;13.80;;;128.60;2252.80;;;;;;5090367;28;20105;-60
2023/01/08 08:06:16;;;;;;;24.05;15.00;;;128.70;2252.80;;;;;;5090444;28;20036;-60
2023/01/08 08:08:42;;;;;;;27.63;18.27;;;128.80;2252.80;;;;;;5090001;28;20527;-60
2023/01/08 08:11:07;;;;;;;37.85;26.70;;;153.60;2252.80;;;;;;5090395;28;20028;-61
2023/01/08 08:13:33;;;;;;;38.35;26.90;;;153.70;2252.80;;;;;;5090243;28;20388;-60
2023/01/08 08:16:03;;;;;;;43.95;29.17;;;153.80;2252.80;;;;;;5089939;28;20541;-60
2023/01/08 08:18:29;;;;;;;75.80;49.78;;;153.90;2252.80;;;;;;5089973;28;20110;-60
2023/01/08 08:20:56;;;;;;;53.58;34.08;;;154.20;2252.80;;;;;;5089651;28;20036;-60
2023/01/08 08:23:22;;;;;;;39.65;27.75;;;154.30;2252.80;;;;;;5089718;28;20454;-61
2023/01/08 08:25:49;;;;;;;24.00;16.38;;;154.30;2252.80;;;;;;5089887;28;20115;-61
2023/01/08 08:28:15;;;;;;;25.90;17.98;;;179.40;2252.80;;;;;;5090547;28;20060;-60
2023/01/08 08:30:41;;;;;;;30.20;20.40;;;204.90;2252.80;;;;;;5093635;28;20059;-60
2023/01/08 08:33:06;;;;;;;26.65;20.63;;;230.90;2252.80;;;;;;5093930;28;20065;-59
2023/01/08 08:35:33;;;;;;;26.17;19.35;;;256.70;2252.80;;;;;;5093376;28;20496;-61
2023/01/08 08:37:59;;;;;;;33.83;24.30;;;282.50;2278.40;;;;;;5094020;28;20369;-60
2023/01/08 08:40:25;;;;;;;68.25;53.05;;;282.10;2278.40;;;;;;5093198;28;20032;-60
2023/01/08 08:42:56;;;;;;;61.17;45.53;;;256.70;2252.80;;;;;;5093380;28;20032;-61
2023/01/08 08:45:21;;;;;;;69.00;52.63;;;231.30;2252.80;;;;;;5092831;28;20044;-61
2023/01/08 08:47:47;;;;;;;65.70;50.67;;;231.10;2252.80;;;;;;5093398;28;20024;-60
2023/01/08 08:50:13;;;;;;;57.55;42.33;;;230.90;2252.80;;;;;;5093438;28;20024;-60
2023/01/08 08:52:38;;;;;;;43.00;30.60;;;256.40;2252.80;;;;;;5093667;28;20027;-60
2023/01/08 08:55:05;;;;;;;57.45;44.45;;;282.50;2278.40;;;;;;5093250;28;20481;-60
2023/01/08 08:57:31;;;;;;;69.47;50.30;;;333.40;2329.60;;;;;;5091871;28;20028;-62
2023/01/08 08:59:57;;;;;;;51.63;39.75;;;359.10;2176.00;;;;;;5093420;28;20024;-60
2023/01/08 09:02:23;;;;;;;183.15;134.30;;;384.90;2048.00;;;;;;5093056;28;20032;-62
2023/01/08 09:04:48;;;;;;;112.53;99.53;;;410.10;1971.20;;;;;;5093117;28;20048;-64
2023/01/08 09:07:14;;;;;;;132.25;108.57;;;410.20;1920.00;;;;;;5092867;28;20028;-59
2023/01/08 09:09:40;;;;;;;164.98;126.20;;;410.50;1920.00;;;;;;5092747;28;20030;-61
2023/01/08 09:12:06;;;;;;;153.38;128.98;;;435.90;1817.60;;;;;;5092748;28;20032;-59
2023/01/08 09:14:32;;;;;;;108.18;91.05;;;461.40;1792.00;;;;;;5093173;28;20028;-61
2023/01/08 09:16:57;;;;;;;185.50;165.35;;;486.40;1715.20;;;;;;5092235;28;20424;-61
2023/01/08 09:19:23;;;;;;;325.73;286.35;;;461.40;1740.80;;;;;;5091994;28;20022;-61
2023/01/08 09:21:49;;;;;;;332.13;296.83;;;461.60;1715.20;;;;;;5092264;28;20024;-63
2023/01/08 09:24:15;;;;;;;235.93;210.63;;;461.40;1740.80;;;;;;5092482;28;20023;-59
2023/01/08 09:26:41;;;;;;;216.60;194.27;;;461.20;1740.80;;;;;;5092433;28;20024;-61
2023/01/08 09:29:07;;;;;;;243.93;217.55;;;460.80;1766.40;;;;;;5092523;28;20465;-60
2023/01/08 09:31:33;;;;;;;216.95;193.73;;;460.90;1766.40;;;;;;5092770;28;20424;-63
2023/01/08 09:33:59;;;;;;;205.65;183.82;;;461.00;1740.80;;;;;;5092128;28;20017;-61
2023/01/08 09:36:25;;;;;;;151.82;136.02;;;461.20;1740.80;;;;;;5092103;28;20020;-61
2023/01/08 09:38:50;;;;;;;166.32;147.95;;;461.20;1740.80;;;;;;5090314;28;20071;-60
2023/01/08 09:41:25;;;;;;;135.18;113.88;;;461.00;1740.80;;;;;;5092312;28;20354;-60
2023/01/08 09:43:54;;;;;;;108.82;91.88;;;435.50;1766.40;;;;;;5092207;28;20027;-59
2023/01/08 09:46:22;;;;;;;92.13;78.70;;;410.20;1817.60;;;;;;5091895;28;20048;-59
2023/01/08 09:48:48;;;;;;;97.32;82.18;;;384.70;1868.80;;;;;;5092167;28;20500;-60
2023/01/08 09:51:17;;;;;;;101.80;81.60;;;359.00;1945.60;;;;;;5092039;28;20032;-59
2023/01/08 09:53:43;;;;;;;94.97;76.82;;;333.60;2048.00;;;;;;5092189;28;20028;-59
2023/01/08 09:56:13;;;;;;;92.13;73.57;;;332.90;2073.60;;;;;;5092180;28;20129;-59
2023/01/08 09:59:02;;;;;;;86.53;69.78;;;308.10;2124.80;;;;;;5092439;28;20024;-59
2023/01/08 10:01:39;;;;;;;94.57;77.28;;;307.80;2201.60;;;;;;5010058;28;20104;-63
2023/01/08 10:04:15;;;;;;;96.63;79.00;;;307.70;2227.20;;;;;;5009804;28;20395;-60
2023/01/08 10:06:49;;;;;;;93.10;69.20;;;307.60;2278.40;;;;;;5010070;28;20783;-58
2023/01/08 10:09:14;;;;;;;94.95;77.82;;;307.20;2304.00;;;;;;5009821;28;20045;-62
2023/01/08 10:11:46;;;;;;;98.00;75.85;;;282.50;2278.40;;;;;;5009808;28;20536;-63
2023/01/08 10:14:24;;;;;;;98.03;76.32;;;282.40;2278.40;;;;;;5009356;28;20038;-60
2023/01/08 10:16:56;;;;;;;98.32;72.70;;;282.50;2278.40;;;;;;5009561;28;20427;-59
2023/01/08 10:19:22;;;;;;;93.60;73.95;;;282.20;2278.40;;;;;;5009436;28;20042;-61
2023/01/08 10:21:48;;;;;;;102.88;76.63;;;282.40;2278.40;;;;;;5009615;28;20034;-59
2023/01/08 10:24:14;;;;;;;97.60;72.93;;;282.40;2278.40;;;;;;5009235;28;20029;-62
2023/01/08 10:26:40;;;;;;;112.88;83.85;;;282.50;2278.40;;;;;;5009376;28;20041;-60
2023/01/08 10:29:12;;;;;;;90.30;66.82;;;307.20;2304.00;;;;;;5009331;28;20025;-59
2023/01/08 10:31:45;;;;;;;89.45;71.28;;;282.50;2278.40;;;;;;5009241;28;20042;-60
2023/01/08 10:34:17;;;;;;;94.07;66.13;;;282.50;2278.40;;;;;;5009341;28;20049;-61
2023/01/08 10:36:43;;;;;;;104.33;76.70;;;307.20;2304.00;;;;;;5009202;28;20484;-59
2023/01/08 10:39:21;;;;;;;119.45;89.53;;;307.20;2304.00;;;;;;5074385;28;20071;-60
2023/01/08 10:41:48;;;;;;;113.93;82.95;;;307.20;2304.00;;;;;;5091200;28;20385;-61
2023/01/08 10:44:17;;;;;;;116.30;87.35;;;282.50;2278.40;;;;;;5090812;28;20526;-59
2023/01/08 10:46:47;;;;;;;90.43;62.72;;;282.50;2278.40;;;;;;5090522;28;20044;-60
2023/01/08 10:49:18;;;;;;;80.72;59.60;;;282.50;2278.40;;;;;;5090709;28;20028;-60
2023/01/08 10:51:52;;;;;;;71.68;50.65;;;307.30;2304.00;;;;;;5090435;28;20050;-60
2023/01/08 10:54:38;;;;;;;87.03;64.60;;;307.20;2304.00;;;;;;5091310;28;20375;-61
2023/01/08 10:57:31;;;;;;;97.65;64.70;;;307.30;2304.00;;;;;;5091168;28;20417;-60
2023/01/08 10:59:57;;;;;;;85.80;58.22;;;307.20;2304.00;;;;;;5087334;28;20040;-61
2023/01/08 11:02:37;;;;;;;80.47;56.30;;;307.20;2304.00;;;;;;5090586;28;20036;-60
2023/01/08 11:05:06;;;;;;;64.07;46.42;;;307.30;2304.00;;;;;;5091057;28;20028;-60
2023/01/08 11:07:34;;;;;;;67.88;45.88;;;307.40;2304.00;;;;;;5090665;28;20402;-60
2023/01/08 11:10:01;;;;;;;108.63;72.30;;;307.40;2304.00;;;;;;5090624;28;20089;-60
2023/01/08 11:12:39;;;;;;;89.10;61.00;;;307.50;2304.00;;;;;;5090673;28;20020;-62
2023/01/08 11:15:24;;;;;;;76.47;52.35;;;307.60;2304.00;;;;;;5090412;28;20036;-61
2023/01/08 11:17:49;;;;;;;67.28;49.10;;;307.70;2304.00;;;;;;5090638;28;20058;-62
2023/01/08 11:20:27;;;;;;;71.75;47.45;;;307.70;2304.00;;;;;;5090362;28;20066;-62
2023/01/08 11:23:04;;;;;;;84.20;55.55;;;307.80;2304.00;;;;;;5090423;28;20036;-61
2023/01/08 11:25:31;;;;;;;72.97;51.72;;;307.80;2304.00;;;;;;5091011;28;20024;-61
2023/01/08 11:28:00;;;;;;;95.43;59.15;;;307.80;2304.00;;;;;;5090270;28;20020;-62
2023/01/08 11:30:31;;;;;;;91.18;62.40;;;307.80;2304.00;;;;;;5090115;28;20028;-62
2023/01/08 11:33:12;;;;;;;105.05;65.88;;;307.90;2304.00;;;;;;5090883;28;20477;-62
2023/01/08 11:36:21;;;;;;;97.38;64.13;;;307.90;2304.00;;;;;;5090431;28;20500;-65
2023/01/08 11:38:46;;;;;;;67.45;45.58;;;308.00;2304.00;;;;;;5007823;28;20117;-60
2023/01/08 11:41:17;;;;;;;72.70;49.47;;;308.10;2304.00;;;;;;5006384;28;20554;-63
2023/01/08 11:44:11;;;;;;;87.07;61.08;;;308.10;2304.00;;;;;;5006645;28;20029;-62
2023/01/08 11:46:45;;;;;;;69.93;50.47;;;308.10;2304.00;;;;;;4937623;29;20046;-62
2023/01/08 11:49:40;;;;;;;113.18;70.63;;;308.10;2304.00;;;;;;4937176;29;20051;-63
2023/01/08 11:52:19;;;;;;;84.65;60.33;;;332.80;2329.60;;;;;;4934842;29;20071;-60
2023/01/08 11:55:12;;;;;;;75.82;53.40;;;332.80;2329.60;;;;;;4939659;29;21070;-62
2023/01/08 11:58:06;;;;;;;57.25;40.88;;;332.90;2329.60;;;;;;4940962;29;20043;-62
2023/01/08 12:00:49;;;;;;;48.55;35.72;;;332.90;2329.60;;;;;;4937675;29;20032;-63
2023/01/08 12:03:39;;;;;;;60.20;43.03;;;332.90;2329.60;;;;;;4939585;28;20054;-61
2023/01/08 12:06:27;;;;;;;53.25;37.85;;;333.00;2329.60;;;;;;4942471;29;20079;-62
2023/01/08 12:08:57;;;;;;;35.75;27.50;;;333.10;2329.60;;;;;;4939160;29;20051;-63
2023/01/08 12:11:27;;;;;;;53.33;38.88;;;333.00;2329.60;;;;;;4938362;29;20118;-62
2023/01/08 12:14:05;;;;;;;53.92;38.00;;;333.20;2329.60;;;;;;4972797;28;20033;-62
2023/01/08 12:17:08;;;;;;;50.97;36.78;;;333.20;2329.60;;;;;;5028037;28;20045;-62
2023/01/08 12:19:36;;;;;;;39.40;27.38;;;333.20;2329.60;;;;;;5028211;28;20035;-62